Time;durP1;ratioP1;P1;durP2;ratioP2;P2;SDS_P1;SDS_P2;PMS_P1;PMS_P2;Temp;Humidity;BMP_temperature;BMP_pressure;BME280_temperature;BME280_humidity;BME280_pressure;Samples;Min_cycle;Max_cycle;Signal;HPM_P1;HPM_P2
2021/04/24 00:02:21;;;;;;;2.70;2.15;;;14.00;70.10;;;;;;5091832;28;20040;-54
2021/04/24 00:04:46;;;;;;;2.85;1.88;;;14.00;70.10;;;;;;5092778;28;20393;-53
2021/04/24 00:07:12;;;;;;;2.10;1.73;;;14.00;70.10;;;;;;5092557;28;20377;-55
2021/04/24 00:09:39;;;;;;;2.40;2.08;;;14.00;70.10;;;;;;5093000;28;20497;-52
2021/04/24 00:12:06;;;;;;;2.38;1.88;;;14.00;70.20;;;;;;5092857;28;20047;-53
2021/04/24 00:14:32;;;;;;;2.30;2.05;;;13.90;70.10;;;;;;5092745;28;20048;-57
2021/04/24 00:16:58;;;;;;;2.85;2.10;;;14.00;70.20;;;;;;5092320;28;20056;-55
2021/04/24 00:19:24;;;;;;;3.20;2.10;;;14.00;70.20;;;;;;5092705;28;20044;-51
2021/04/24 00:21:50;;;;;;;2.53;2.13;;;14.00;70.20;;;;;;5092574;28;20044;-56
2021/04/24 00:24:16;;;;;;;2.60;2.03;;;14.00;70.20;;;;;;5092907;28;20094;-53
2021/04/24 00:26:41;;;;;;;2.38;2.08;;;13.90;70.10;;;;;;5092283;28;20051;-53
2021/04/24 00:29:07;;;;;;;2.40;2.00;;;13.90;70.10;;;;;;5092754;28;20132;-52
2021/04/24 00:31:33;;;;;;;2.22;1.80;;;13.90;70.10;;;;;;5092787;28;20066;-52
2021/04/24 00:33:59;;;;;;;3.17;2.28;;;13.90;70.10;;;;;;5092161;28;20400;-53
2021/04/24 00:36:25;;;;;;;2.50;2.17;;;13.90;70.10;;;;;;5092439;28;20040;-54
2021/04/24 00:38:51;;;;;;;2.58;1.67;;;13.90;70.10;;;;;;5123649;28;20067;-56
2021/04/24 00:41:17;;;;;;;2.22;1.90;;;13.90;70.20;;;;;;5092658;28;20040;-54
2021/04/24 00:43:42;;;;;;;2.15;1.92;;;13.90;70.20;;;;;;5092617;28;20044;-54
2021/04/24 00:46:13;;;;;;;2.30;2.00;;;13.90;70.20;;;;;;5092497;28;20127;-54
2021/04/24 00:48:40;;;;;;;2.30;1.80;;;13.90;70.20;;;;;;5091978;28;20040;-55
2021/04/24 00:51:07;;;;;;;3.13;2.10;;;13.90;70.20;;;;;;5092376;28;20067;-50
2021/04/24 00:53:33;;;;;;;2.03;1.70;;;13.90;70.20;;;;;;5092412;28;20093;-54
2021/04/24 00:55:59;;;;;;;2.55;1.95;;;13.90;70.20;;;;;;5092676;28;20048;-54
2021/04/24 00:58:26;;;;;;;2.83;1.83;;;13.90;70.20;;;;;;5092130;28;20139;-55
2021/04/24 01:00:52;;;;;;;2.78;2.25;;;13.90;70.20;;;;;;5092455;28;20097;-54
2021/04/24 01:03:18;;;;;;;2.72;1.90;;;13.90;70.20;;;;;;5092452;28;20056;-54
2021/04/24 01:05:45;;;;;;;2.33;1.98;;;13.90;70.20;;;;;;5092391;28;20431;-56
2021/04/24 01:08:11;;;;;;;2.97;1.88;;;13.90;70.30;;;;;;5092374;28;20044;-56
2021/04/24 01:10:40;;;;;;;2.33;1.95;;;13.90;70.30;;;;;;5092163;28;20079;-55
2021/04/24 01:13:08;;;;;;;2.50;2.10;;;14.00;70.30;;;;;;5093072;28;20054;-54
2021/04/24 01:15:34;;;;;;;2.33;2.13;;;13.90;70.30;;;;;;5094816;28;20051;-54
2021/04/24 01:18:00;;;;;;;3.58;2.20;;;13.90;70.30;;;;;;5095880;28;20066;-55
2021/04/24 01:20:26;;;;;;;2.70;1.90;;;13.90;70.30;;;;;;5095487;28;20477;-56
2021/04/24 01:22:53;;;;;;;2.47;2.15;;;13.90;70.30;;;;;;5096075;28;20067;-56
2021/04/24 01:25:26;;;;;;;2.20;1.83;;;13.90;70.30;;;;;;5096075;28;20044;-53
2021/04/24 01:27:55;;;;;;;2.55;1.95;;;13.90;70.40;;;;;;5095869;28;20063;-54
2021/04/24 01:30:25;;;;;;;2.53;2.00;;;13.90;70.30;;;;;;5095320;28;20044;-54
2021/04/24 01:32:52;;;;;;;2.60;1.90;;;13.90;70.30;;;;;;5095781;28;20160;-55
2021/04/24 01:35:22;;;;;;;2.42;1.60;;;13.80;70.30;;;;;;5095584;28;20052;-54
2021/04/24 01:37:48;;;;;;;2.13;1.58;;;13.80;70.30;;;;;;5095650;28;20048;-54
2021/04/24 01:40:17;;;;;;;2.38;1.90;;;13.80;70.30;;;;;;5095562;28;20060;-51
2021/04/24 01:42:44;;;;;;;2.03;1.65;;;13.80;70.30;;;;;;5095269;28;20400;-56
2021/04/24 01:45:12;;;;;;;2.47;1.95;;;13.80;70.30;;;;;;5094900;28;20079;-52
2021/04/24 01:47:40;;;;;;;2.30;1.80;;;13.80;70.30;;;;;;5095516;28;20523;-55
2021/04/24 01:50:07;;;;;;;2.00;1.77;;;13.90;70.40;;;;;;5095341;28;20051;-56
2021/04/24 01:52:38;;;;;;;2.50;1.98;;;13.80;70.30;;;;;;5094959;28;20151;-53
2021/04/24 01:55:07;;;;;;;2.67;2.13;;;13.90;70.40;;;;;;5095129;28;20047;-53
2021/04/24 01:57:33;;;;;;;2.70;1.98;;;13.80;70.30;;;;;;5095417;28;20056;-56
2021/04/24 01:59:59;;;;;;;2.13;1.63;;;13.80;70.30;;;;;;5095073;28;20135;-54
2021/04/24 02:02:25;;;;;;;2.58;1.85;;;13.80;70.30;;;;;;5094777;28;20114;-50
2021/04/24 02:04:51;;;;;;;2.35;1.90;;;13.80;70.30;;;;;;5095208;28;20097;-56
2021/04/24 02:07:18;;;;;;;2.10;1.60;;;13.80;70.30;;;;;;5094752;28;20040;-50
2021/04/24 02:09:43;;;;;;;2.08;1.52;;;13.80;70.30;;;;;;5095251;28;20104;-54
2021/04/24 02:12:11;;;;;;;3.20;1.95;;;13.80;70.30;;;;;;5095072;28;20378;-54
2021/04/24 02:14:49;;;;;;;2.28;1.90;;;13.90;70.40;;;;;;5094310;28;20055;-54
2021/04/24 02:17:22;;;;;;;1.77;1.45;;;13.80;70.40;;;;;;5094975;28;20485;-54
2021/04/24 02:19:49;;;;;;;1.98;1.73;;;13.80;70.40;;;;;;5094972;28;20047;-53
2021/04/24 02:22:15;;;;;;;2.17;1.58;;;13.80;70.40;;;;;;5094710;28;20044;-52
2021/04/24 02:24:50;;;;;;;2.38;1.83;;;13.80;70.40;;;;;;5093308;28;20088;-56
2021/04/24 02:27:16;;;;;;;2.17;1.80;;;13.80;70.40;;;;;;5094576;28;20044;-54
2021/04/24 02:29:44;;;;;;;1.90;1.70;;;13.80;70.40;;;;;;5094832;28;20044;-53
2021/04/24 02:32:11;;;;;;;2.58;1.70;;;13.80;70.40;;;;;;5094777;28;20048;-54
2021/04/24 02:34:43;;;;;;;1.83;1.65;;;13.80;70.40;;;;;;5094270;28;20126;-55
2021/04/24 02:37:11;;;;;;;3.22;2.30;;;13.80;70.40;;;;;;5094521;28;20047;-53
2021/04/24 02:39:38;;;;;;;2.10;1.65;;;13.80;70.50;;;;;;5093926;28;20056;-55
2021/04/24 02:42:07;;;;;;;2.65;1.95;;;13.80;70.40;;;;;;5094408;28;20040;-54
2021/04/24 02:44:33;;;;;;;2.58;1.98;;;13.80;70.50;;;;;;5094290;28;20044;-53
2021/04/24 02:46:59;;;;;;;2.17;1.67;;;13.80;70.40;;;;;;5094368;28;20058;-54
2021/04/24 02:49:25;;;;;;;2.20;1.77;;;13.80;70.50;;;;;;5094455;28;20476;-56
2021/04/24 02:51:55;;;;;;;3.25;1.90;;;13.80;70.50;;;;;;5094230;28;20066;-53
2021/04/24 02:54:22;;;;;;;2.17;1.80;;;13.80;70.50;;;;;;5093822;28;20158;-56
2021/04/24 02:56:49;;;;;;;2.40;1.90;;;13.70;70.40;;;;;;5093828;28;20101;-52
2021/04/24 02:59:15;;;;;;;2.58;1.90;;;13.80;70.50;;;;;;5094136;28;20047;-54
2021/04/24 03:01:42;;;;;;;2.50;1.80;;;13.70;70.40;;;;;;5094123;28;20431;-55
2021/04/24 03:04:08;;;;;;;2.40;2.08;;;13.70;70.40;;;;;;5092798;28;20051;-54
2021/04/24 03:06:34;;;;;;;2.38;1.80;;;13.70;70.40;;;;;;5093638;28;20127;-54
2021/04/24 03:09:01;;;;;;;2.17;1.80;;;13.70;70.40;;;;;;5093414;28;20536;-54
2021/04/24 03:11:28;;;;;;;2.40;1.95;;;13.70;70.50;;;;;;5093951;28;20054;-51
2021/04/24 03:13:54;;;;;;;2.65;1.75;;;13.70;70.40;;;;;;5093832;28;20040;-54
2021/04/24 03:16:19;;;;;;;2.13;1.77;;;13.70;70.40;;;;;;5093434;28;20039;-53
2021/04/24 03:18:45;;;;;;;2.13;1.83;;;13.70;70.40;;;;;;5094072;28;20079;-53
2021/04/24 03:21:11;;;;;;;2.10;1.55;;;13.70;70.50;;;;;;5093752;28;20419;-54
2021/04/24 03:23:37;;;;;;;2.30;1.75;;;13.70;70.40;;;;;;5093597;28;20051;-52
2021/04/24 03:26:02;;;;;;;2.38;1.92;;;13.70;70.50;;;;;;5093136;28;20096;-54
2021/04/24 03:28:28;;;;;;;2.60;1.90;;;13.70;70.40;;;;;;5093385;28;20048;-54
2021/04/24 03:30:54;;;;;;;3.08;2.28;;;13.70;70.40;;;;;;5093530;28;20118;-56
2021/04/24 03:33:20;;;;;;;2.20;2.00;;;13.70;70.50;;;;;;5093655;28;20380;-53
2021/04/24 03:35:46;;;;;;;2.17;1.90;;;13.70;70.50;;;;;;5093287;28;20090;-55
2021/04/24 03:38:12;;;;;;;2.40;1.90;;;13.70;70.50;;;;;;5092974;28;20040;-54
2021/04/24 03:40:38;;;;;;;2.35;1.95;;;13.70;70.50;;;;;;5092745;28;20059;-54
2021/04/24 03:43:04;;;;;;;2.40;1.90;;;13.70;70.50;;;;;;5093457;28;20055;-56
2021/04/24 03:45:30;;;;;;;2.67;1.92;;;13.70;70.50;;;;;;5091662;28;20058;-55
2021/04/24 03:47:56;;;;;;;2.25;1.88;;;13.70;70.50;;;;;;5093467;28;20052;-57
2021/04/24 03:50:24;;;;;;;2.33;1.55;;;13.70;70.50;;;;;;5092937;28;20127;-56
2021/04/24 03:52:53;;;;;;;2.25;1.90;;;13.70;70.50;;;;;;5093088;28;20055;-57
2021/04/24 03:55:20;;;;;;;2.10;1.80;;;13.70;70.50;;;;;;5093371;28;20047;-53
2021/04/24 03:57:47;;;;;;;2.67;1.90;;;13.60;70.40;;;;;;5092951;28;20399;-56
2021/04/24 04:00:17;;;;;;;3.80;2.22;;;13.60;70.50;;;;;;5092515;28;20446;-52
2021/04/24 04:02:57;;;;;;;3.13;1.90;;;13.70;70.50;;;;;;5092469;28;20044;-51
2021/04/24 04:05:26;;;;;;;3.58;1.92;;;13.70;70.50;;;;;;5092247;28;20047;-53
2021/04/24 04:07:52;;;;;;;2.53;2.05;;;13.60;70.50;;;;;;5092443;28;20123;-53
2021/04/24 04:10:19;;;;;;;2.10;1.70;;;13.60;70.50;;;;;;5091691;28;20537;-55
2021/04/24 04:12:48;;;;;;;2.60;2.30;;;13.70;70.50;;;;;;5091193;28;20048;-52
2021/04/24 04:15:16;;;;;;;3.00;1.95;;;13.70;70.60;;;;;;5092755;28;20119;-55
2021/04/24 04:17:43;;;;;;;2.67;1.98;;;13.60;70.50;;;;;;5093010;28;20051;-54
2021/04/24 04:20:11;;;;;;;2.40;1.58;;;13.60;70.50;;;;;;5092821;28;20051;-53
2021/04/24 04:22:37;;;;;;;1.75;1.60;;;13.60;70.50;;;;;;5092523;28;20048;-52
2021/04/24 04:25:05;;;;;;;2.25;1.65;;;13.60;70.50;;;;;;5093119;28;20048;-53
2021/04/24 04:27:30;;;;;;;2.25;1.70;;;13.60;70.50;;;;;;5091570;28;20040;-54
2021/04/24 04:29:56;;;;;;;2.38;1.75;;;13.60;70.50;;;;;;5092756;28;20051;-53
2021/04/24 04:32:22;;;;;;;1.77;1.60;;;13.60;70.50;;;;;;5092455;28;20044;-55
2021/04/24 04:34:48;;;;;;;2.28;1.75;;;13.60;70.60;;;;;;5092567;28;20077;-53
2021/04/24 04:37:14;;;;;;;2.05;1.60;;;13.60;70.60;;;;;;5092829;28;20510;-54
2021/04/24 04:39:41;;;;;;;2.45;1.70;;;13.60;70.50;;;;;;5092735;28;20052;-57
2021/04/24 04:42:08;;;;;;;1.75;1.60;;;13.60;70.60;;;;;;5092381;28;20040;-55
2021/04/24 04:44:34;;;;;;;2.30;1.85;;;13.60;71.20;;;;;;5092478;28;20532;-51
2021/04/24 04:47:00;;;;;;;2.88;1.90;;;13.60;70.60;;;;;;5092744;28;20044;-53
2021/04/24 04:49:27;;;;;;;2.92;2.15;;;13.60;70.60;;;;;;5095767;28;20561;-55
2021/04/24 04:51:52;;;;;;;2.50;2.30;;;13.60;70.60;;;;;;5096651;28;20545;-56
2021/04/24 04:54:18;;;;;;;2.50;1.90;;;13.60;70.60;;;;;;5095717;28;20144;-55
2021/04/24 04:56:44;;;;;;;3.97;2.22;;;13.60;70.60;;;;;;5096532;28;20408;-53
2021/04/24 04:59:09;;;;;;;3.05;1.80;;;13.60;70.60;;;;;;5096280;28;20083;-54
2021/04/24 05:01:35;;;;;;;2.53;1.85;;;13.60;70.60;;;;;;5096324;28;20040;-51
2021/04/24 05:04:01;;;;;;;2.15;1.77;;;13.60;70.60;;;;;;5096064;28;20048;-56
2021/04/24 05:06:26;;;;;;;2.67;1.80;;;13.60;70.60;;;;;;5096272;28;20052;-54
2021/04/24 05:08:52;;;;;;;2.30;2.00;;;13.60;70.60;;;;;;5096248;28;20050;-52
2021/04/24 05:11:18;;;;;;;2.20;1.70;;;13.60;70.60;;;;;;5096300;28;20075;-49
2021/04/24 05:13:44;;;;;;;2.63;2.08;;;13.60;70.60;;;;;;5095540;28;20044;-53
2021/04/24 05:16:09;;;;;;;2.72;1.85;;;13.60;70.70;;;;;;5096062;28;20079;-55
2021/04/24 05:18:35;;;;;;;2.85;2.10;;;13.60;70.70;;;;;;5096007;28;20048;-54
2021/04/24 05:21:02;;;;;;;2.88;1.90;;;13.60;70.60;;;;;;5096135;28;20052;-51
2021/04/24 05:23:27;;;;;;;2.00;1.73;;;13.60;70.60;;;;;;5096055;28;20040;-50
2021/04/24 05:25:53;;;;;;;2.03;1.58;;;13.60;70.70;;;;;;5095281;28;20046;-53
2021/04/24 05:28:19;;;;;;;1.92;1.50;;;13.60;70.60;;;;;;5096134;28;20048;-52
2021/04/24 05:30:44;;;;;;;2.47;1.85;;;13.60;70.70;;;;;;5095536;28;20052;-49
2021/04/24 05:33:10;;;;;;;2.30;1.80;;;13.60;70.70;;;;;;5095872;28;20105;-54
2021/04/24 05:35:36;;;;;;;2.38;1.95;;;13.50;70.60;;;;;;5095472;28;20040;-50
2021/04/24 05:38:02;;;;;;;2.10;1.90;;;13.50;70.60;;;;;;5095468;28;20067;-53
2021/04/24 05:40:28;;;;;;;2.90;1.77;;;13.60;70.70;;;;;;5095187;28;20059;-50
2021/04/24 05:42:54;;;;;;;2.63;2.05;;;13.60;70.70;;;;;;5095661;28;20044;-55
2021/04/24 05:45:20;;;;;;;2.00;1.60;;;13.50;70.60;;;;;;5095109;28;20127;-55
2021/04/24 05:47:48;;;;;;;2.38;2.00;;;13.60;70.70;;;;;;5095554;28;20067;-54
2021/04/24 05:50:16;;;;;;;2.10;1.90;;;13.50;70.60;;;;;;5095182;28;20055;-54
2021/04/24 05:52:43;;;;;;;2.50;1.80;;;13.50;70.60;;;;;;5095361;28;20529;-56
2021/04/24 05:55:09;;;;;;;2.08;1.70;;;13.50;70.70;;;;;;5095285;28;20415;-53
2021/04/24 05:57:36;;;;;;;2.70;1.88;;;13.50;70.70;;;;;;5095356;28;20070;-52
2021/04/24 06:00:10;;;;;;;2.08;1.73;;;13.60;70.70;;;;;;5094681;28;20044;-55
2021/04/24 06:02:36;;;;;;;1.95;1.60;;;13.50;70.70;;;;;;5095163;28;20131;-56
2021/04/24 06:05:05;;;;;;;2.90;1.90;;;13.50;70.70;;;;;;5095198;28;20132;-51
2021/04/24 06:07:30;;;;;;;1.92;1.60;;;13.50;70.70;;;;;;5095060;28;20043;-55
2021/04/24 06:09:56;;;;;;;2.83;2.03;;;13.50;70.70;;;;;;5095091;28;20254;-57
2021/04/24 06:12:22;;;;;;;2.20;1.88;;;13.50;70.70;;;;;;5094894;28;20048;-56
2021/04/24 06:14:47;;;;;;;2.80;1.85;;;13.50;70.70;;;;;;5093664;28;20131;-56
2021/04/24 06:17:13;;;;;;;2.22;1.90;;;13.50;70.70;;;;;;5094926;28;20044;-55
2021/04/24 06:19:39;;;;;;;2.83;1.52;;;13.50;70.70;;;;;;5094806;28;20464;-55
2021/04/24 06:22:05;;;;;;;2.55;1.95;;;13.50;70.70;;;;;;5094852;28;20043;-57
2021/04/24 06:24:30;;;;;;;2.03;1.80;;;13.50;70.70;;;;;;5094784;28;20071;-55
2021/04/24 06:26:56;;;;;;;2.08;1.65;;;13.50;70.70;;;;;;5094813;28;20120;-55
2021/04/24 06:29:22;;;;;;;2.60;1.90;;;13.50;70.70;;;;;;5094964;28;20424;-54
2021/04/24 06:31:48;;;;;;;1.85;1.65;;;13.50;70.70;;;;;;5092789;28;20074;-56
2021/04/24 06:34:15;;;;;;;2.03;1.65;;;13.50;70.70;;;;;;5094653;28;20529;-56
2021/04/24 06:36:40;;;;;;;1.90;1.67;;;13.50;70.70;;;;;;5094612;28;20400;-56
2021/04/24 06:39:06;;;;;;;2.72;1.90;;;13.50;70.70;;;;;;5094511;28;20041;-56
2021/04/24 06:41:34;;;;;;;2.38;1.90;;;13.50;70.70;;;;;;5093728;28;20056;-55
2021/04/24 06:44:01;;;;;;;1.50;1.40;;;13.50;70.70;;;;;;5094483;28;20044;-54
2021/04/24 06:46:27;;;;;;;2.47;1.92;;;13.50;70.70;;;;;;5092465;28;20044;-53
2021/04/24 06:48:52;;;;;;;2.45;1.98;;;13.50;70.70;;;;;;5092967;28;20109;-52
2021/04/24 06:51:18;;;;;;;2.50;1.90;;;13.50;70.70;;;;;;5094396;28;20063;-56
2021/04/24 06:53:44;;;;;;;2.00;1.65;;;13.50;70.70;;;;;;5093732;28;20135;-51
2021/04/24 06:56:10;;;;;;;1.95;1.80;;;13.50;70.70;;;;;;5093940;28;20078;-52
2021/04/24 06:58:35;;;;;;;2.47;1.98;;;13.50;70.70;;;;;;5094336;28;20048;-51
2021/04/24 07:01:01;;;;;;;2.17;1.90;;;13.50;70.70;;;;;;5094222;28;20044;-54
2021/04/24 07:03:27;;;;;;;2.55;1.55;;;13.50;70.70;;;;;;5093357;28;20048;-53
2021/04/24 07:05:52;;;;;;;2.28;1.50;;;13.50;70.70;;;;;;5094102;28;20051;-53
2021/04/24 07:08:18;;;;;;;2.78;1.85;;;13.60;70.70;;;;;;5093906;28;20484;-52
2021/04/24 07:10:44;;;;;;;2.38;2.05;;;13.50;70.70;;;;;;5093385;28;20052;-50
2021/04/24 07:13:10;;;;;;;2.97;1.85;;;13.60;70.70;;;;;;5093883;28;20051;-54
2021/04/24 07:15:36;;;;;;;2.00;1.50;;;13.50;70.60;;;;;;5093655;28;20051;-56
2021/04/24 07:18:02;;;;;;;1.95;1.75;;;13.50;70.60;;;;;;5093367;28;20051;-55
2021/04/24 07:20:28;;;;;;;2.80;1.70;;;13.50;70.60;;;;;;5093894;28;20113;-56
2021/04/24 07:22:54;;;;;;;2.45;1.90;;;13.60;70.70;;;;;;5093648;28;20051;-56
2021/04/24 07:25:20;;;;;;;2.45;1.70;;;13.60;70.70;;;;;;5093380;28;20487;-56
2021/04/24 07:27:45;;;;;;;2.00;1.50;;;13.60;70.60;;;;;;5093580;28;20040;-57
2021/04/24 07:30:12;;;;;;;2.10;1.60;;;13.60;70.60;;;;;;5093763;28;20044;-57
2021/04/24 07:32:38;;;;;;;4.72;1.90;;;13.60;70.60;;;;;;5093561;28;20131;-57
2021/04/24 07:35:06;;;;;;;2.67;1.73;;;13.60;70.60;;;;;;5092984;28;20480;-56
2021/04/24 07:37:32;;;;;;;3.42;2.00;;;13.60;70.60;;;;;;5093464;28;20040;-56
2021/04/24 07:39:58;;;;;;;2.65;1.73;;;13.60;70.60;;;;;;5093459;28;20048;-56
2021/04/24 07:42:25;;;;;;;2.53;1.85;;;13.60;70.50;;;;;;5093364;28;20522;-56
2021/04/24 07:44:51;;;;;;;2.38;1.98;;;13.60;70.50;;;;;;5093452;28;20498;-53
2021/04/24 07:47:17;;;;;;;1.92;1.70;;;13.60;70.50;;;;;;5123877;27;20044;-54
2021/04/24 07:49:43;;;;;;;1.60;1.42;;;13.60;70.80;;;;;;5092586;28;20449;-56
2021/04/24 07:52:10;;;;;;;2.35;1.90;;;13.60;70.50;;;;;;5093221;28;20124;-56
2021/04/24 07:54:41;;;;;;;2.20;1.70;;;13.60;70.50;;;;;;5093310;28;20051;-57
2021/04/24 07:57:11;;;;;;;2.47;1.70;;;13.60;70.50;;;;;;5092899;28;20401;-55
2021/04/24 07:59:37;;;;;;;2.60;1.90;;;13.60;70.40;;;;;;5093131;28;20499;-57
2021/04/24 08:02:03;;;;;;;3.33;1.90;;;13.60;70.40;;;;;;5093271;28;20040;-55
2021/04/24 08:04:29;;;;;;;2.55;1.67;;;13.60;70.40;;;;;;5092388;28;20538;-54
2021/04/24 08:06:55;;;;;;;2.30;1.60;;;13.60;70.40;;;;;;5092467;28;20139;-50
2021/04/24 08:09:20;;;;;;;1.88;1.55;;;13.60;70.40;;;;;;5092622;28;20533;-53
2021/04/24 08:11:46;;;;;;;2.15;1.60;;;13.70;70.40;;;;;;5092716;28;20051;-55
2021/04/24 08:14:12;;;;;;;2.55;1.63;;;13.60;70.40;;;;;;5092832;28;20087;-53
2021/04/24 08:16:38;;;;;;;3.10;1.83;;;13.70;70.40;;;;;;5092750;28;20454;-57
2021/04/24 08:19:03;;;;;;;3.08;1.80;;;13.70;70.40;;;;;;5092275;28;20480;-53
2021/04/24 08:21:30;;;;;;;3.08;1.40;;;13.70;70.40;;;;;;5092516;28;20044;-54
2021/04/24 08:24:00;;;;;;;2.47;1.55;;;13.70;70.40;;;;;;5095011;28;20036;-51
2021/04/24 08:26:28;;;;;;;1.90;1.48;;;13.70;70.40;;;;;;5096918;28;20044;-55
2021/04/24 08:28:54;;;;;;;3.13;2.00;;;13.70;70.40;;;;;;5096313;28;20400;-55
2021/04/24 08:31:20;;;;;;;2.50;1.90;;;13.70;70.40;;;;;;5096745;28;20048;-53
2021/04/24 08:33:46;;;;;;;2.13;1.73;;;13.70;70.30;;;;;;5096572;28;20484;-52
2021/04/24 08:36:12;;;;;;;2.42;1.40;;;13.70;70.40;;;;;;5096376;28;20072;-56
2021/04/24 08:38:38;;;;;;;2.35;1.77;;;13.70;70.30;;;;;;5096327;28;20048;-53
2021/04/24 08:41:05;;;;;;;2.95;1.67;;;13.80;70.30;;;;;;5096410;28;20078;-53
2021/04/24 08:43:32;;;;;;;2.17;1.63;;;13.70;70.20;;;;;;5096830;28;20044;-53
2021/04/24 08:46:01;;;;;;;2.70;1.45;;;13.80;70.90;;;;;;5096412;28;20484;-50
2021/04/24 08:48:28;;;;;;;2.03;1.70;;;13.80;70.20;;;;;;5096519;28;20048;-51
2021/04/24 08:50:55;;;;;;;2.35;1.60;;;13.80;70.20;;;;;;5095673;28;20051;-54
2021/04/24 08:53:21;;;;;;;2.17;1.45;;;13.80;70.20;;;;;;5096212;28;20048;-55
2021/04/24 08:55:47;;;;;;;2.88;1.88;;;13.80;70.10;;;;;;5096216;28;20048;-52
2021/04/24 08:58:14;;;;;;;2.05;1.40;;;13.90;70.10;;;;;;5095124;28;20399;-54
2021/04/24 09:00:42;;;;;;;2.97;1.60;;;13.90;70.10;;;;;;5095846;28;20457;-53
2021/04/24 09:03:10;;;;;;;2.58;1.80;;;13.90;70.10;;;;;;5096373;28;20044;-53
2021/04/24 09:05:36;;;;;;;2.05;1.38;;;13.90;70.10;;;;;;5096292;28;20060;-56
2021/04/24 09:08:05;;;;;;;2.28;1.67;;;13.90;70.10;;;;;;5095921;28;20151;-53
2021/04/24 09:10:44;;;;;;;2.20;1.40;;;13.90;70.10;;;;;;5095619;28;20079;-51
2021/04/24 09:13:11;;;;;;;3.83;1.75;;;13.90;70.10;;;;;;5095001;28;20051;-55
2021/04/24 09:15:37;;;;;;;3.40;1.77;;;13.90;70.10;;;;;;5085875;28;20052;-53
2021/04/24 09:18:08;;;;;;;1.98;1.67;;;13.90;70.10;;;;;;5075599;28;20060;-56
2021/04/24 09:20:55;;;;;;;3.47;1.80;;;14.00;70.20;;;;;;5075159;28;20044;-55
2021/04/24 09:23:28;;;;;;;2.67;1.67;;;14.00;70.20;;;;;;5093292;28;20173;-55
2021/04/24 09:26:07;;;;;;;1.88;1.40;;;14.00;70.20;;;;;;5094933;28;20048;-55
2021/04/24 09:28:40;;;;;;;2.03;1.60;;;14.00;70.20;;;;;;5115298;28;20047;-51
2021/04/24 09:31:12;;;;;;;2.67;1.60;;;14.00;70.10;;;;;;5105975;28;20131;-48
2021/04/24 09:33:38;;;;;;;1.55;1.30;;;14.10;70.20;;;;;;5080063;28;20048;-50
2021/04/24 09:36:07;;;;;;;3.13;1.58;;;14.10;70.20;;;;;;5084414;28;20048;-52
2021/04/24 09:38:38;;;;;;;1.88;1.50;;;14.10;70.10;;;;;;5095350;28;20048;-56
2021/04/24 09:41:17;;;;;;;3.03;1.48;;;14.10;70.10;;;;;;5094946;28;20063;-54
2021/04/24 09:44:05;;;;;;;2.78;1.70;;;14.10;70.10;;;;;;5094455;28;20044;-54
2021/04/24 09:46:33;;;;;;;3.55;1.52;;;14.20;70.00;;;;;;5094682;28;20047;-55
2021/04/24 09:49:18;;;;;;;2.63;1.40;;;14.20;70.00;;;;;;5094406;28;20587;-55
2021/04/24 09:51:45;;;;;;;2.70;1.30;;;14.20;70.00;;;;;;5094863;28;20123;-56
2021/04/24 09:54:11;;;;;;;2.08;1.33;;;14.20;69.90;;;;;;5094188;28;20048;-56
2021/04/24 09:56:37;;;;;;;2.40;1.20;;;14.20;69.90;;;;;;5093273;28;20081;-57
2021/04/24 09:59:06;;;;;;;3.10;1.40;;;14.20;69.80;;;;;;5094872;28;20074;-57
2021/04/24 10:01:32;;;;;;;1.70;1.20;;;14.30;69.90;;;;;;5094077;28;20054;-57
2021/04/24 10:03:59;;;;;;;1.38;1.13;;;14.20;69.80;;;;;;5094436;28;20051;-54
2021/04/24 10:06:39;;;;;;;1.45;1.05;;;14.30;69.80;;;;;;5094293;28;20124;-56
2021/04/24 10:09:24;;;;;;;2.45;1.40;;;14.30;69.70;;;;;;5094361;28;20044;-56
2021/04/24 10:12:10;;;;;;;3.08;1.33;;;14.30;69.70;;;;;;5088124;28;20044;-56
2021/04/24 10:14:40;;;;;;;3.05;1.38;;;14.40;69.60;;;;;;5082958;28;20060;-55
2021/04/24 10:17:17;;;;;;;3.47;1.50;;;14.50;69.70;;;;;;5077021;28;20044;-56
2021/04/24 10:19:43;;;;;;;2.88;1.42;;;14.40;69.60;;;;;;5092997;28;20157;-57
2021/04/24 10:22:12;;;;;;;2.08;1.30;;;14.40;69.60;;;;;;5096836;28;20044;-52
2021/04/24 10:24:39;;;;;;;1.92;1.20;;;14.40;69.50;;;;;;5114442;28;20411;-55
2021/04/24 10:27:05;;;;;;;1.63;1.10;;;14.40;69.40;;;;;;5104409;28;20048;-56
2021/04/24 10:29:31;;;;;;;1.58;1.30;;;14.50;69.40;;;;;;5094757;28;20048;-57
2021/04/24 10:31:58;;;;;;;2.15;1.25;;;14.40;69.40;;;;;;5094470;28;20495;-54
2021/04/24 10:34:24;;;;;;;1.67;1.00;;;14.50;69.40;;;;;;5093072;28;20496;-56
2021/04/24 10:36:51;;;;;;;1.85;1.48;;;14.60;69.40;;;;;;5094462;28;20513;-53
2021/04/24 10:39:21;;;;;;;3.72;1.40;;;14.60;69.30;;;;;;5104453;28;20071;-54
2021/04/24 10:42:01;;;;;;;2.38;1.50;;;14.60;69.30;;;;;;5103979;28;20059;-48
2021/04/24 10:44:46;;;;;;;2.00;1.05;;;14.60;69.20;;;;;;5108886;28;20054;-51
2021/04/24 10:47:12;;;;;;;1.80;1.30;;;14.60;69.20;;;;;;5101308;28;20048;-54
2021/04/24 10:49:55;;;;;;;2.55;1.27;;;14.60;69.20;;;;;;5093571;28;20051;-57
2021/04/24 10:52:23;;;;;;;1.83;1.20;;;14.70;69.10;;;;;;5093483;28;20070;-56
2021/04/24 10:55:16;;;;;;;1.92;1.48;;;14.70;69.10;;;;;;5094064;28;20056;-54
2021/04/24 10:57:51;;;;;;;2.60;1.10;;;14.70;69.00;;;;;;5094283;28;20055;-47
2021/04/24 11:00:24;;;;;;;1.75;1.30;;;14.70;69.00;;;;;;5094030;28;20044;-57
2021/04/24 11:02:53;;;;;;;1.90;1.17;;;14.70;69.00;;;;;;5094104;28;20105;-57
2021/04/24 11:05:29;;;;;;;1.58;1.15;;;14.70;68.90;;;;;;5094015;28;20309;-57
2021/04/24 11:08:22;;;;;;;2.20;1.30;;;14.80;68.90;;;;;;5093669;28;20044;-52
2021/04/24 11:10:53;;;;;;;1.45;1.08;;;14.80;68.80;;;;;;5093195;28;20044;-52
2021/04/24 11:13:21;;;;;;;1.67;1.27;;;14.80;68.80;;;;;;5093332;28;20051;-50
2021/04/24 11:15:48;;;;;;;2.28;1.27;;;14.80;68.80;;;;;;5111480;28;20122;-56
2021/04/24 11:18:16;;;;;;;3.80;1.40;;;14.80;68.80;;;;;;5109712;28;20040;-48
2021/04/24 11:20:46;;;;;;;2.40;1.20;;;14.90;68.80;;;;;;5093282;28;20044;-53
2021/04/24 11:23:30;;;;;;;1.90;1.20;;;14.90;68.70;;;;;;5092891;28;20048;-53
2021/04/24 11:25:57;;;;;;;1.85;1.00;;;14.70;68.60;;;;;;5093075;28;20718;-55
2021/04/24 11:28:23;;;;;;;2.45;1.00;;;14.90;68.70;;;;;;5093408;28;20051;-56
2021/04/24 11:30:59;;;;;;;2.53;1.27;;;14.90;68.60;;;;;;5101114;28;20051;-54
2021/04/24 11:33:45;;;;;;;1.75;1.20;;;14.90;68.50;;;;;;5113701;28;20052;-58
2021/04/24 11:36:19;;;;;;;1.83;1.15;;;15.00;68.60;;;;;;5113752;27;20067;-55
2021/04/24 11:39:14;;;;;;;2.30;1.45;;;15.00;68.60;;;;;;5113844;28;20047;-56
2021/04/24 11:41:45;;;;;;;2.55;1.30;;;15.00;68.50;;;;;;5112490;28;20101;-54
2021/04/24 11:44:24;;;;;;;1.45;1.05;;;15.00;68.50;;;;;;5113774;28;20044;-50
2021/04/24 11:46:52;;;;;;;2.97;1.10;;;15.00;68.40;;;;;;5113764;28;20055;-52
2021/04/24 11:49:23;;;;;;;2.10;1.20;;;15.00;68.40;;;;;;5113647;28;20126;-54
2021/04/24 11:51:55;;;;;;;1.30;0.90;;;15.00;68.30;;;;;;5113227;28;20507;-56
2021/04/24 11:54:21;;;;;;;3.03;1.40;;;15.10;68.30;;;;;;5113180;28;20051;-53
2021/04/24 11:56:49;;;;;;;1.33;1.15;;;15.10;68.30;;;;;;5113253;28;20039;-50
2021/04/24 11:59:27;;;;;;;2.20;1.20;;;15.10;68.30;;;;;;5101320;28;20104;-52
2021/04/24 12:01:59;;;;;;;0.85;0.70;;;15.10;68.20;;;;;;5090005;28;20044;-55
2021/04/24 12:04:35;;;;;;;2.13;1.20;;;15.10;68.20;;;;;;5092260;28;20054;-56
2021/04/24 12:07:10;;;;;;;1.35;1.10;;;15.10;68.10;;;;;;5092636;28;20051;-54
2021/04/24 12:09:50;;;;;;;;;;;15.10;68.10;;;;;;5093081;28;20056;-55
2021/04/24 12:12:20;;;;;;;2.20;1.20;;;15.20;68.10;;;;;;5092063;28;19928;-57
2021/04/24 12:14:46;;;;;;;1.33;0.95;;;15.10;68.10;;;;;;5092367;28;20138;-57
2021/04/24 12:17:17;;;;;;;1.85;1.58;;;15.20;68.10;;;;;;5091908;28;20036;-55
2021/04/24 12:19:45;;;;;;;1.23;1.08;;;15.20;68.00;;;;;;5091756;28;20473;-55
2021/04/24 12:22:11;;;;;;;3.00;1.25;;;15.20;68.60;;;;;;5091442;28;20044;-57
2021/04/24 12:24:49;;;;;;;2.03;1.20;;;15.20;67.90;;;;;;5092821;28;20055;-54
2021/04/24 12:27:30;;;;;;;1.75;1.05;;;15.20;67.80;;;;;;5092487;28;20407;-55
2021/04/24 12:29:58;;;;;;;1.35;1.20;;;15.20;67.80;;;;;;5091633;28;20075;-56
2021/04/24 12:32:32;;;;;;;1.75;1.20;;;15.20;67.80;;;;;;5092415;28;20048;-55
2021/04/24 12:35:10;;;;;;;1.80;1.30;;;15.30;67.80;;;;;;5091928;28;20059;-56
2021/04/24 12:37:36;;;;;;;2.80;1.00;;;15.30;67.80;;;;;;5092376;28;20048;-54
2021/04/24 12:40:08;;;;;;;1.70;0.70;;;15.30;67.80;;;;;;5092180;28;20127;-51
2021/04/24 12:42:34;;;;;;;2.53;1.08;;;15.30;67.70;;;;;;5092429;28;20044;-55
2021/04/24 12:45:04;;;;;;;1.73;0.90;;;15.30;67.80;;;;;;5092018;28;20054;-56
2021/04/24 12:47:31;;;;;;;2.00;1.13;;;15.30;67.70;;;;;;5091786;28;20051;-53
2021/04/24 12:49:57;;;;;;;1.42;1.20;;;15.30;67.70;;;;;;5091908;28;20040;-57
2021/04/24 12:52:23;;;;;;;1.08;0.80;;;15.30;67.70;;;;;;5091762;28;20047;-52
2021/04/24 12:55:06;;;;;;;1.08;0.90;;;15.30;67.70;;;;;;5092267;28;20097;-55